sensor_id;sensor_type;location;lat;lon;timestamp;pressure;altitude;pressure_sealevel;temperature;humidity
69842;BME280;57138;51.326;-0.068;2023-02-17T00:00:35;100253.34;;;9.32;100.00
69842;BME280;57138;51.326;-0.068;2023-02-17T00:03:00;100240.38;;;9.29;100.00
69842;BME280;57138;51.326;-0.068;2023-02-17T00:05:26;100255.31;;;9.39;100.00
69842;BME280;57138;51.326;-0.068;2023-02-17T00:07:52;100253.28;;;9.41;100.00
69842;BME280;57138;51.326;-0.068;2023-02-17T00:10:18;100249.63;;;9.42;100.00
69842;BME280;57138;51.326;-0.068;2023-02-17T00:12:44;100256.63;;;9.43;100.00
69842;BME280;57138;51.326;-0.068;2023-02-17T00:15:10;100242.25;;;9.44;100.00
69842;BME280;57138;51.326;-0.068;2023-02-17T00:17:36;100240.97;;;9.40;100.00
69842;BME280;57138;51.326;-0.068;2023-02-17T00:20:05;100257.06;;;9.46;100.00
69842;BME280;57138;51.326;-0.068;2023-02-17T00:22:31;100243.72;;;9.46;100.00
69842;BME280;57138;51.326;-0.068;2023-02-17T00:24:56;100246.22;;;9.48;100.00
69842;BME280;57138;51.326;-0.068;2023-02-17T00:27:21;100239.22;;;9.47;100.00
69842;BME280;57138;51.326;-0.068;2023-02-17T00:29:47;100238.22;;;9.48;100.00
69842;BME280;57138;51.326;-0.068;2023-02-17T00:32:12;100241.88;;;9.47;100.00
69842;BME280;57138;51.326;-0.068;2023-02-17T00:34:38;100228.72;;;9.45;100.00
69842;BME280;57138;51.326;-0.068;2023-02-17T00:37:04;100231.03;;;9.48;100.00
69842;BME280;57138;51.326;-0.068;2023-02-17T00:39:30;100241.53;;;9.50;100.00
69842;BME280;57138;51.326;-0.068;2023-02-17T00:41:55;100241.16;;;9.53;100.00
69842;BME280;57138;51.326;-0.068;2023-02-17T00:44:23;100245.88;;;9.51;100.00
69842;BME280;57138;51.326;-0.068;2023-02-17T00:46:51;100246.50;;;9.53;100.00
69842;BME280;57138;51.326;-0.068;2023-02-17T00:49:24;100244.84;;;9.52;100.00
69842;BME280;57138;51.326;-0.068;2023-02-17T00:51:50;100234.50;;;9.49;100.00
69842;BME280;57138;51.326;-0.068;2023-02-17T00:54:16;100239.13;;;9.55;100.00
69842;BME280;57138;51.326;-0.068;2023-02-17T00:56:41;100238.78;;;9.58;100.00
69842;BME280;57138;51.326;-0.068;2023-02-17T00:59:08;100228.47;;;9.55;100.00
69842;BME280;57138;51.326;-0.068;2023-02-17T01:01:34;100236.41;;;9.63;100.00
69842;BME280;57138;51.326;-0.068;2023-02-17T01:04:00;100239.25;;;9.62;100.00
69842;BME280;57138;51.326;-0.068;2023-02-17T01:06:28;100238.03;;;9.64;100.00
69842;BME280;57138;51.326;-0.068;2023-02-17T01:08:54;100236.03;;;9.66;100.00
69842;BME280;57138;51.326;-0.068;2023-02-17T01:11:25;100230.69;;;9.66;100.00
69842;BME280;57138;51.326;-0.068;2023-02-17T01:13:51;100232.69;;;9.64;100.00
69842;BME280;57138;51.326;-0.068;2023-02-17T01:16:21;100229.03;;;9.65;100.00
69842;BME280;57138;51.326;-0.068;2023-02-17T01:18:47;100235.00;;;9.67;100.00
69842;BME280;57138;51.326;-0.068;2023-02-17T01:21:26;100222.50;;;9.68;100.00
69842;BME280;57138;51.326;-0.068;2023-02-17T01:23:54;100230.69;;;9.66;100.00
69842;BME280;57138;51.326;-0.068;2023-02-17T01:26:23;100220.22;;;9.65;100.00
69842;BME280;57138;51.326;-0.068;2023-02-17T01:28:49;100217.91;;;9.62;100.00
69842;BME280;57138;51.326;-0.068;2023-02-17T01:31:17;100218.72;;;9.62;100.00
69842;BME280;57138;51.326;-0.068;2023-02-17T01:33:43;100225.78;;;9.55;100.00
69842;BME280;57138;51.326;-0.068;2023-02-17T01:36:11;100220.09;;;9.58;100.00
69842;BME280;57138;51.326;-0.068;2023-02-17T01:38:36;100230.75;;;9.58;100.00
69842;BME280;57138;51.326;-0.068;2023-02-17T01:41:03;100221.84;;;9.51;100.00
69842;BME280;57138;51.326;-0.068;2023-02-17T01:43:29;100234.09;;;9.60;100.00
69842;BME280;57138;51.326;-0.068;2023-02-17T01:45:56;100229.75;;;9.59;100.00
69842;BME280;57138;51.326;-0.068;2023-02-17T01:48:43;100221.75;;;9.59;100.00
69842;BME280;57138;51.326;-0.068;2023-02-17T01:51:23;100221.47;;;9.54;100.00
69842;BME280;57138;51.326;-0.068;2023-02-17T01:53:54;100230.13;;;9.56;100.00
69842;BME280;57138;51.326;-0.068;2023-02-17T01:56:23;100230.13;;;9.56;100.00
69842;BME280;57138;51.326;-0.068;2023-02-17T01:58:55;100221.47;;;9.54;100.00
69842;BME280;57138;51.326;-0.068;2023-02-17T02:01:22;100218.81;;;9.54;100.00
69842;BME280;57138;51.326;-0.068;2023-02-17T02:03:48;100217.78;;;9.55;100.00
69842;BME280;57138;51.326;-0.068;2023-02-17T02:06:18;100211.25;;;9.58;100.00
69842;BME280;57138;51.326;-0.068;2023-02-17T02:08:52;100206.09;;;9.56;100.00
69842;BME280;57138;51.326;-0.068;2023-02-17T02:11:18;100193.31;;;9.51;100.00
69842;BME280;57138;51.326;-0.068;2023-02-17T02:13:44;100196.44;;;9.55;100.00
69842;BME280;57138;51.326;-0.068;2023-02-17T02:24:19;100205.47;;;9.54;100.00
69842;BME280;57138;51.326;-0.068;2023-02-17T02:32:38;100188.78;;;9.52;100.00
69842;BME280;57138;51.326;-0.068;2023-02-17T02:35:21;100189.81;;;9.51;100.00
69842;BME280;57138;51.326;-0.068;2023-02-17T02:38:05;100191.44;;;9.52;100.00
69842;BME280;57138;51.326;-0.068;2023-02-17T02:40:40;100175.44;;;9.52;100.00
69842;BME280;57138;51.326;-0.068;2023-02-17T02:43:07;100173.13;;;9.49;100.00
69842;BME280;57138;51.326;-0.068;2023-02-17T02:45:33;100184.09;;;9.54;100.00
69842;BME280;57138;51.326;-0.068;2023-02-17T02:47:59;100182.44;;;9.53;100.00
69842;BME280;57138;51.326;-0.068;2023-02-17T02:56:17;100193.50;;;9.65;100.00
69842;BME280;57138;51.326;-0.068;2023-02-17T02:59:07;100190.66;;;9.66;100.00
69842;BME280;57138;51.326;-0.068;2023-02-17T03:01:51;100178.94;;;9.67;100.00
69842;BME280;57138;51.326;-0.068;2023-02-17T03:07:13;100187.25;;;9.73;100.00
69842;BME280;57138;51.326;-0.068;2023-02-17T03:09:50;100192.59;;;9.73;100.00
69842;BME280;57138;51.326;-0.068;2023-02-17T03:12:17;100186.88;;;9.76;100.00
69842;BME280;57138;51.326;-0.068;2023-02-17T03:14:43;100193.69;;;9.78;100.00
69842;BME280;57138;51.326;-0.068;2023-02-17T03:17:09;100188.16;;;9.80;100.00
69842;BME280;57138;51.326;-0.068;2023-02-17T03:19:38;100187.16;;;9.81;100.00
69842;BME280;57138;51.326;-0.068;2023-02-17T03:22:29;100186.16;;;9.82;100.00
69842;BME280;57138;51.326;-0.068;2023-02-17T03:24:57;100192.75;;;9.86;100.00
69842;BME280;57138;51.326;-0.068;2023-02-17T03:27:24;100183.75;;;9.87;100.00
69842;BME280;57138;51.326;-0.068;2023-02-17T03:29:49;100194.06;;;9.90;100.00
69842;BME280;57138;51.326;-0.068;2023-02-17T03:32:15;100177.59;;;9.86;100.00
69842;BME280;57138;51.326;-0.068;2023-02-17T03:34:40;100188.34;;;9.93;100.00
69842;BME280;57138;51.326;-0.068;2023-02-17T03:37:08;100186.69;;;9.92;100.00
69842;BME280;57138;51.326;-0.068;2023-02-17T03:39:34;100174.91;;;9.86;100.00
69842;BME280;57138;51.326;-0.068;2023-02-17T03:41:59;100189.16;;;9.94;100.00
69842;BME280;57138;51.326;-0.068;2023-02-17T03:44:25;100175.09;;;9.85;100.00
69842;BME280;57138;51.326;-0.068;2023-02-17T03:46:54;100191.03;;;9.93;100.00
69842;BME280;57138;51.326;-0.068;2023-02-17T03:49:21;100203.63;;;9.99;100.00
69842;BME280;57138;51.326;-0.068;2023-02-17T03:51:47;100191.66;;;9.95;100.00
69842;BME280;57138;51.326;-0.068;2023-02-17T03:54:12;100208.78;;;10.01;100.00
69842;BME280;57138;51.326;-0.068;2023-02-17T03:56:38;100197.00;;;9.95;100.00
69842;BME280;57138;51.326;-0.068;2023-02-17T03:59:04;100180.34;;;9.93;100.00
69842;BME280;57138;51.326;-0.068;2023-02-17T04:01:29;100200.22;;;10.05;100.00
69842;BME280;57138;51.326;-0.068;2023-02-17T04:03:55;100208.88;;;10.07;100.00
69842;BME280;57138;51.326;-0.068;2023-02-17T04:06:20;100207.03;;;10.08;100.00
69842;BME280;57138;51.326;-0.068;2023-02-17T04:08:46;100210.53;;;10.08;100.00
69842;BME280;57138;51.326;-0.068;2023-02-17T04:11:12;100225.16;;;10.13;100.00
69842;BME280;57138;51.326;-0.068;2023-02-17T04:13:38;100219.81;;;10.13;100.00
69842;BME280;57138;51.326;-0.068;2023-02-17T04:16:06;100210.16;;;10.12;100.00
69842;BME280;57138;51.326;-0.068;2023-02-17T04:18:31;100207.13;;;10.15;100.00
69842;BME280;57138;51.326;-0.068;2023-02-17T04:20:58;100201.78;;;10.15;100.00
69842;BME280;57138;51.326;-0.068;2023-02-17T04:23:23;100197.63;;;10.12;100.00
69842;BME280;57138;51.326;-0.068;2023-02-17T04:25:49;100198.09;;;10.16;100.00
69842;BME280;57138;51.326;-0.068;2023-02-17T04:28:15;100200.38;;;10.19;100.00
69842;BME280;57138;51.326;-0.068;2023-02-17T04:30:48;100203.91;;;10.19;100.00
69842;BME280;57138;51.326;-0.068;2023-02-17T04:33:15;100200.56;;;10.17;100.00
69842;BME280;57138;51.326;-0.068;2023-02-17T04:35:40;100200.19;;;10.20;100.00
69842;BME280;57138;51.326;-0.068;2023-02-17T04:38:07;100198.38;;;10.21;100.00
69842;BME280;57138;51.326;-0.068;2023-02-17T04:40:34;100199.38;;;10.20;100.00
69842;BME280;57138;51.326;-0.068;2023-02-17T04:43:01;100199.75;;;10.17;100.00
69842;BME280;57138;51.326;-0.068;2023-02-17T04:45:27;100210.06;;;10.20;100.00
69842;BME280;57138;51.326;-0.068;2023-02-17T04:47:53;100211.34;;;10.24;100.00
69842;BME280;57138;51.326;-0.068;2023-02-17T04:50:18;100210.06;;;10.20;100.00
69842;BME280;57138;51.326;-0.068;2023-02-17T04:52:44;100211.34;;;10.24;100.00
69842;BME280;57138;51.326;-0.068;2023-02-17T04:55:09;100208.03;;;10.22;100.00
69842;BME280;57138;51.326;-0.068;2023-02-17T04:57:34;100203.72;;;10.21;100.00
69842;BME280;57138;51.326;-0.068;2023-02-17T05:00:00;100215.03;;;10.23;100.00
69842;BME280;57138;51.326;-0.068;2023-02-17T05:02:25;100214.22;;;10.22;100.00
69842;BME280;57138;51.326;-0.068;2023-02-17T05:04:52;100211.34;;;10.24;100.00
69842;BME280;57138;51.326;-0.068;2023-02-17T05:07:18;100231.06;;;10.23;100.00
69842;BME280;57138;51.326;-0.068;2023-02-17T05:09:43;100221.56;;;10.20;100.00
69842;BME280;57138;51.326;-0.068;2023-02-17T05:12:09;100218.72;;;10.22;100.00
69842;BME280;57138;51.326;-0.068;2023-02-17T05:14:34;100234.00;;;10.28;100.00
69842;BME280;57138;51.326;-0.068;2023-02-17T05:17:00;100232.75;;;10.24;99.80
69842;BME280;57138;51.326;-0.068;2023-02-17T05:19:25;100241.38;;;10.26;100.00
69842;BME280;57138;51.326;-0.068;2023-02-17T05:21:50;100236.03;;;10.26;99.38
69842;BME280;57138;51.326;-0.068;2023-02-17T05:24:16;100245.06;;;10.25;99.38
69842;BME280;57138;51.326;-0.068;2023-02-17T05:26:42;100231.50;;;10.26;99.00
69842;BME280;57138;51.326;-0.068;2023-02-17T05:29:07;100232.75;;;10.24;98.94
69842;BME280;57138;51.326;-0.068;2023-02-17T05:31:33;100243.25;;;10.25;98.34
69842;BME280;57138;51.326;-0.068;2023-02-17T05:34:01;100232.25;;;10.20;98.56
69842;BME280;57138;51.326;-0.068;2023-02-17T05:36:27;100231.06;;;10.23;98.29
69842;BME280;57138;51.326;-0.068;2023-02-17T05:38:52;100218.72;;;10.22;98.36
69842;BME280;57138;51.326;-0.068;2023-02-17T05:41:18;100226.53;;;10.23;98.07
69842;BME280;57138;51.326;-0.068;2023-02-17T05:43:44;100223.06;;;10.23;97.93
69842;BME280;57138;51.326;-0.068;2023-02-17T05:46:10;100227.75;;;10.21;97.67
69842;BME280;57138;51.326;-0.068;2023-02-17T05:48:35;100232.25;;;10.20;97.63
69842;BME280;57138;51.326;-0.068;2023-02-17T05:51:01;100227.75;;;10.21;97.07
69842;BME280;57138;51.326;-0.068;2023-02-17T05:53:26;100220.50;;;10.15;96.99
69842;BME280;57138;51.326;-0.068;2023-02-17T05:55:52;100220.31;;;10.16;96.76
69842;BME280;57138;51.326;-0.068;2023-02-17T05:58:17;100221.56;;;10.20;96.33
69842;BME280;57138;51.326;-0.068;2023-02-17T06:00:43;100226.47;;;10.17;96.35
69842;BME280;57138;51.326;-0.068;2023-02-17T06:03:10;100226.09;;;10.20;96.57
69842;BME280;57138;51.326;-0.068;2023-02-17T06:05:35;100219.94;;;10.19;96.35
69842;BME280;57138;51.326;-0.068;2023-02-17T06:08:01;100213.75;;;10.19;96.36
69842;BME280;57138;51.326;-0.068;2023-02-17T06:10:26;100203.41;;;10.16;96.22
69842;BME280;57138;51.326;-0.068;2023-02-17T06:12:51;100200.56;;;10.17;95.56
69842;BME280;57138;51.326;-0.068;2023-02-17T06:15:17;100208.41;;;10.19;95.66
69842;BME280;57138;51.326;-0.068;2023-02-17T06:17:42;100199.75;;;10.17;95.64
69842;BME280;57138;51.326;-0.068;2023-02-17T06:20:08;100196.06;;;10.18;95.41
69842;BME280;57138;51.326;-0.068;2023-02-17T06:22:34;100191.28;;;10.13;95.22
69842;BME280;57138;51.326;-0.068;2023-02-17T06:24:59;100195.41;;;10.16;95.08
69842;BME280;57138;51.326;-0.068;2023-02-17T06:27:25;100201.78;;;10.15;95.01
69842;BME280;57138;51.326;-0.068;2023-02-17T06:29:50;100184.84;;;10.07;94.64
69842;BME280;57138;51.326;-0.068;2023-02-17T06:32:16;100188.81;;;10.12;95.05
69842;BME280;57138;51.326;-0.068;2023-02-17T06:34:41;100206.47;;;10.13;94.90
69842;BME280;57138;51.326;-0.068;2023-02-17T06:37:07;100196.81;;;10.12;94.46
69842;BME280;57138;51.326;-0.068;2023-02-17T06:39:32;100208.31;;;10.12;94.27
69842;BME280;57138;51.326;-0.068;2023-02-17T06:41:57;100210.34;;;10.10;94.42
69842;BME280;57138;51.326;-0.068;2023-02-17T06:44:23;100204.53;;;10.06;94.30
69842;BME280;57138;51.326;-0.068;2023-02-17T06:46:49;100208.25;;;10.05;94.18
69842;BME280;57138;51.326;-0.068;2023-02-17T06:49:14;100193.78;;;10.00;94.14
69842;BME280;57138;51.326;-0.068;2023-02-17T06:51:39;100197.56;;;10.05;94.03
69842;BME280;57138;51.326;-0.068;2023-02-17T06:54:05;100204.53;;;10.06;93.68
69842;BME280;57138;51.326;-0.068;2023-02-17T06:56:31;100211.09;;;10.04;93.99
69842;BME280;57138;51.326;-0.068;2023-02-17T06:58:56;100202.81;;;9.99;94.01
69842;BME280;57138;51.326;-0.068;2023-02-17T07:01:28;100204.91;;;10.03;93.66
69842;BME280;57138;51.326;-0.068;2023-02-17T07:03:55;100205.50;;;9.99;93.76
69842;BME280;57138;51.326;-0.068;2023-02-17T07:06:22;100205.31;;;10.00;93.72
69842;BME280;57138;51.326;-0.068;2023-02-17T07:08:48;100203.47;;;10.01;92.97
69842;BME280;57138;51.326;-0.068;2023-02-17T07:11:14;100193.13;;;9.98;93.76
69842;BME280;57138;51.326;-0.068;2023-02-17T07:13:40;100205.31;;;10.00;93.46
69842;BME280;57138;51.326;-0.068;2023-02-17T07:16:07;100191.03;;;9.93;93.43
69842;BME280;57138;51.326;-0.068;2023-02-17T07:18:32;100191.66;;;9.95;93.27
69842;BME280;57138;51.326;-0.068;2023-02-17T07:20:58;100201.97;;;9.98;93.18
69842;BME280;57138;51.326;-0.068;2023-02-17T07:23:23;100201.16;;;9.98;92.79
69842;BME280;57138;51.326;-0.068;2023-02-17T07:25:49;100205.69;;;9.97;92.86
69842;BME280;57138;51.326;-0.068;2023-02-17T07:28:15;100202.72;;;9.92;92.85
69842;BME280;57138;51.326;-0.068;2023-02-17T07:30:41;100204.00;;;9.96;93.01
69842;BME280;57138;51.326;-0.068;2023-02-17T07:33:07;100205.00;;;9.95;93.13
69842;BME280;57138;51.326;-0.068;2023-02-17T07:35:34;100213.03;;;9.95;92.68
69842;BME280;57138;51.326;-0.068;2023-02-17T07:38:00;100215.69;;;9.95;93.18
69842;BME280;57138;51.326;-0.068;2023-02-17T07:40:26;100209.72;;;9.93;92.86
69842;BME280;57138;51.326;-0.068;2023-02-17T07:42:53;100226.38;;;9.95;92.90
69842;BME280;57138;51.326;-0.068;2023-02-17T07:45:20;100225.75;;;9.93;92.74
69842;BME280;57138;51.326;-0.068;2023-02-17T07:47:46;100225.75;;;9.93;92.45
69842;BME280;57138;51.326;-0.068;2023-02-17T07:50:11;100215.25;;;9.92;92.59
69842;BME280;57138;51.326;-0.068;2023-02-17T07:52:37;100220.41;;;9.93;92.55
69842;BME280;57138;51.326;-0.068;2023-02-17T07:55:03;100228.41;;;9.93;92.19
69842;BME280;57138;51.326;-0.068;2023-02-17T07:57:29;100207.41;;;9.90;92.64
69842;BME280;57138;51.326;-0.068;2023-02-17T07:59:54;100213.41;;;9.92;92.27
69842;BME280;57138;51.326;-0.068;2023-02-17T08:02:20;100221.41;;;9.92;92.04
69842;BME280;57138;51.326;-0.068;2023-02-17T08:04:46;100224.16;;;9.84;92.06
69842;BME280;57138;51.326;-0.068;2023-02-17T08:07:12;100234.13;;;9.90;92.22
69842;BME280;57138;51.326;-0.068;2023-02-17T08:09:37;100267.09;;;9.97;92.02
69842;BME280;57138;51.326;-0.068;2023-02-17T08:12:21;100287.81;;;9.95;91.91
69842;BME280;57138;51.326;-0.068;2023-02-17T08:15:06;100272.50;;;9.89;91.59
69842;BME280;57138;51.326;-0.068;2023-02-17T08:17:32;100284.03;;;9.89;91.49
69842;BME280;57138;51.326;-0.068;2023-02-17T08:19:58;100305.50;;;9.96;91.99
69842;BME280;57138;51.326;-0.068;2023-02-17T08:22:23;100312.50;;;9.97;92.04
69842;BME280;57138;51.326;-0.068;2023-02-17T08:24:49;100306.69;;;9.94;92.00
69842;BME280;57138;51.326;-0.068;2023-02-17T08:27:15;100313.16;;;9.99;92.04
69842;BME280;57138;51.326;-0.068;2023-02-17T08:29:41;100306.88;;;9.92;91.98
69842;BME280;57138;51.326;-0.068;2023-02-17T08:32:07;100312.97;;;10.01;91.93
69842;BME280;57138;51.326;-0.068;2023-02-17T08:34:33;100315.81;;;9.99;91.62
69842;BME280;57138;51.326;-0.068;2023-02-17T08:37:04;100319.13;;;10.01;91.73
69842;BME280;57138;51.326;-0.068;2023-02-17T08:39:31;100294.09;;;10.02;91.62
69842;BME280;57138;51.326;-0.068;2023-02-17T08:41:57;100294.28;;;10.01;91.72
69842;BME280;57138;51.326;-0.068;2023-02-17T08:44:23;100304.41;;;10.05;91.55
69842;BME280;57138;51.326;-0.068;2023-02-17T08:46:49;100304.78;;;10.02;91.67
69842;BME280;57138;51.326;-0.068;2023-02-17T08:49:17;100310.38;;;10.07;91.78
69842;BME280;57138;51.326;-0.068;2023-02-17T08:51:44;100304.13;;;10.00;91.93
69842;BME280;57138;51.326;-0.068;2023-02-17T08:54:10;100311.69;;;10.12;91.94
69842;BME280;57138;51.326;-0.068;2023-02-17T08:56:37;100314.63;;;10.17;91.83
69842;BME280;57138;51.326;-0.068;2023-02-17T08:59:07;100325.97;;;10.19;91.52
69842;BME280;57138;51.326;-0.068;2023-02-17T09:01:34;100312.97;;;10.16;91.73
69842;BME280;57138;51.326;-0.068;2023-02-17T09:04:01;100320.56;;;10.27;91.37
69842;BME280;57138;51.326;-0.068;2023-02-17T09:06:37;100319.00;;;10.33;91.61
69842;BME280;57138;51.326;-0.068;2023-02-17T09:09:05;100308.78;;;10.36;91.25
69842;BME280;57138;51.326;-0.068;2023-02-17T09:11:31;100293.94;;;10.34;91.23
69842;BME280;57138;51.326;-0.068;2023-02-17T09:13:56;100302.03;;;10.40;91.08
69842;BME280;57138;51.326;-0.068;2023-02-17T09:16:22;100301.66;;;10.43;90.60
69842;BME280;57138;51.326;-0.068;2023-02-17T09:18:50;100289.34;;;10.42;90.96
69842;BME280;57138;51.326;-0.068;2023-02-17T09:21:16;100282.59;;;10.47;90.71
69842;BME280;57138;51.326;-0.068;2023-02-17T09:23:42;100283.88;;;10.51;91.10
69842;BME280;57138;51.326;-0.068;2023-02-17T09:26:09;100294.47;;;10.59;90.98
69842;BME280;57138;51.326;-0.068;2023-02-17T09:28:36;100295.75;;;10.63;90.57
69842;BME280;57138;51.326;-0.068;2023-02-17T09:33:44;100298.31;;;10.71;89.78
69842;BME280;57138;51.326;-0.068;2023-02-17T09:36:12;100304.47;;;10.72;89.85
69842;BME280;57138;51.326;-0.068;2023-02-17T09:38:39;100296.09;;;10.75;89.81
69842;BME280;57138;51.326;-0.068;2023-02-17T09:41:26;100323.13;;;10.80;89.17
69842;BME280;57138;51.326;-0.068;2023-02-17T09:43:54;100312.59;;;10.78;89.95
69842;BME280;57138;51.326;-0.068;2023-02-17T09:46:26;100318.84;;;10.86;89.36
69842;BME280;57138;51.326;-0.068;2023-02-17T09:48:56;100304.22;;;10.82;89.23
69842;BME280;57138;51.326;-0.068;2023-02-17T09:51:33;100301.34;;;10.83;88.99
69842;BME280;57138;51.326;-0.068;2023-02-17T09:54:05;100309.44;;;10.90;89.39
69842;BME280;57138;51.326;-0.068;2023-02-17T09:56:37;100315.41;;;10.92;89.03
69842;BME280;57138;51.326;-0.068;2023-02-17T09:59:22;100321.69;;;10.99;88.63
69842;BME280;57138;51.326;-0.068;2023-02-17T10:01:50;100317.63;;;11.03;89.04
69842;BME280;57138;51.326;-0.068;2023-02-17T10:04:21;100315.22;;;11.08;89.20
69842;BME280;57138;51.326;-0.068;2023-02-17T10:06:53;100308.81;;;11.09;88.90
69842;BME280;57138;51.326;-0.068;2023-02-17T10:09:38;100299.78;;;11.10;88.07
69842;BME280;57138;51.326;-0.068;2023-02-17T10:12:13;100308.91;;;11.16;88.61
69842;BME280;57138;51.326;-0.068;2023-02-17T10:15:29;100315.31;;;11.22;88.59
69842;BME280;57138;51.326;-0.068;2023-02-17T10:18:10;100313.75;;;11.27;88.39
69842;BME280;57138;51.326;-0.068;2023-02-17T10:20:39;100306.16;;;11.31;88.32
69842;BME280;57138;51.326;-0.068;2023-02-17T10:23:20;100304.75;;;11.35;88.33
69842;BME280;57138;51.326;-0.068;2023-02-17T10:28:35;100314.94;;;11.46;88.44
69842;BME280;57138;51.326;-0.068;2023-02-17T10:31:11;100303.22;;;11.47;87.99
69842;BME280;57138;51.326;-0.068;2023-02-17T10:33:51;100300.78;;;11.52;87.72
69842;BME280;57138;51.326;-0.068;2023-02-17T10:36:44;100294.38;;;11.47;87.96
69842;BME280;57138;51.326;-0.068;2023-02-17T10:42:01;100304.19;;;11.61;87.53
69842;BME280;57138;51.326;-0.068;2023-02-17T10:44:27;100295.09;;;11.62;87.99
69842;BME280;57138;51.326;-0.068;2023-02-17T10:46:52;100308.75;;;11.67;87.54
69842;BME280;57138;51.326;-0.068;2023-02-17T10:49:35;100309.63;;;11.75;87.55
69842;BME280;57138;51.326;-0.068;2023-02-17T10:52:17;100295.41;;;11.74;87.09
69842;BME280;57138;51.326;-0.068;2023-02-17T10:54:53;100313.72;;;11.71;86.78
69842;BME280;57138;51.326;-0.068;2023-02-17T10:57:21;100296.41;;;11.73;87.29
69842;BME280;57138;51.326;-0.068;2023-02-17T10:59:48;100308.81;;;11.74;87.22
69842;BME280;57138;51.326;-0.068;2023-02-17T11:05:02;100296.03;;;11.76;87.06
69842;BME280;57138;51.326;-0.068;2023-02-17T11:07:33;100296.88;;;11.77;86.75
69842;BME280;57138;51.326;-0.068;2023-02-17T11:10:02;100285.50;;;11.75;86.83
69842;BME280;57138;51.326;-0.068;2023-02-17T11:12:39;100302.66;;;11.80;86.67
69842;BME280;57138;51.326;-0.068;2023-02-17T11:15:15;100310.50;;;11.82;86.83
69842;BME280;57138;51.326;-0.068;2023-02-17T11:17:43;100306.38;;;11.79;87.10
69842;BME280;57138;51.326;-0.068;2023-02-17T11:25:29;100323.94;;;11.88;86.63
69842;BME280;57138;51.326;-0.068;2023-02-17T11:27:59;100314.66;;;11.84;86.97
69842;BME280;57138;51.326;-0.068;2023-02-17T11:30:26;100320.03;;;11.84;86.61
69842;BME280;57138;51.326;-0.068;2023-02-17T11:32:52;100319.38;;;11.82;86.93
69842;BME280;57138;51.326;-0.068;2023-02-17T11:38:23;100342.28;;;11.85;86.61
69842;BME280;57138;51.326;-0.068;2023-02-17T11:40:57;100348.66;;;11.84;86.85
69842;BME280;57138;51.326;-0.068;2023-02-17T11:43:24;100343.03;;;11.79;86.82
69842;BME280;57138;51.326;-0.068;2023-02-17T11:51:21;100331.91;;;11.75;86.88
69842;BME280;57138;51.326;-0.068;2023-02-17T11:56:53;100326.72;;;11.74;87.57
69842;BME280;57138;51.326;-0.068;2023-02-17T12:15:39;100331.50;;;11.78;87.57
69842;BME280;57138;51.326;-0.068;2023-02-17T12:34:39;100347.00;;;11.83;86.87
69842;BME280;57138;51.326;-0.068;2023-02-17T12:37:16;100353.19;;;11.83;87.21
69842;BME280;57138;51.326;-0.068;2023-02-17T12:39:52;100364.13;;;11.88;87.13
69842;BME280;57138;51.326;-0.068;2023-02-17T12:42:25;100365.81;;;11.90;87.52
69842;BME280;57138;51.326;-0.068;2023-02-17T12:45:01;100360.44;;;11.90;87.81
69842;BME280;57138;51.326;-0.068;2023-02-17T12:47:43;100377.44;;;11.97;87.00
69842;BME280;57138;51.326;-0.068;2023-02-17T12:50:25;100383.25;;;12.00;87.31
69842;BME280;57138;51.326;-0.068;2023-02-17T12:52:57;100381.19;;;12.02;87.32
69842;BME280;57138;51.326;-0.068;2023-02-17T12:55:32;100385.34;;;12.05;87.29
69842;BME280;57138;51.326;-0.068;2023-02-17T12:58:07;100391.53;;;12.05;86.74
69842;BME280;57138;51.326;-0.068;2023-02-17T13:00:45;100391.31;;;12.07;86.94
69842;BME280;57138;51.326;-0.068;2023-02-17T13:03:13;100383.66;;;12.04;87.21
69842;BME280;57138;51.326;-0.068;2023-02-17T13:08:40;100379.59;;;12.08;86.91
69842;BME280;57138;51.326;-0.068;2023-02-17T13:11:23;100398.00;;;12.18;87.34
69842;BME280;57138;51.326;-0.068;2023-02-17T13:13:49;100388.38;;;12.23;87.10
69842;BME280;57138;51.326;-0.068;2023-02-17T13:16:15;100384.44;;;12.26;87.11
69842;BME280;57138;51.326;-0.068;2023-02-17T13:18:43;100380.56;;;12.29;86.95
69842;BME280;57138;51.326;-0.068;2023-02-17T13:24:11;100383.16;;;12.44;86.32
69842;BME280;57138;51.326;-0.068;2023-02-17T13:26:39;100374.91;;;12.45;86.84
69842;BME280;57138;51.326;-0.068;2023-02-17T13:29:56;100374.75;;;12.53;86.49
69842;BME280;57138;51.326;-0.068;2023-02-17T13:31:59;100372.28;;;12.58;86.10
69842;BME280;57138;51.326;-0.068;2023-02-17T13:36:51;100373.34;;;12.64;85.87
69842;BME280;57138;51.326;-0.068;2023-02-17T13:41:53;100380.00;;;12.75;85.85
69842;BME280;57138;51.326;-0.068;2023-02-17T13:44:40;100383.13;;;12.85;85.74
69842;BME280;57138;51.326;-0.068;2023-02-17T13:47:16;100387.91;;;12.90;84.71
69842;BME280;57138;51.326;-0.068;2023-02-17T13:49:53;100389.38;;;12.92;85.31
69842;BME280;57138;51.326;-0.068;2023-02-17T13:52:26;100405.69;;;12.98;84.70
69842;BME280;57138;51.326;-0.068;2023-02-17T13:54:54;100383.81;;;12.94;84.63
69842;BME280;57138;51.326;-0.068;2023-02-17T13:57:35;100405.31;;;13.01;84.40
69842;BME280;57138;51.326;-0.068;2023-02-17T14:00:28;100417.31;;;13.05;84.14
69842;BME280;57138;51.326;-0.068;2023-02-17T14:02:56;100417.72;;;13.02;84.21
69842;BME280;57138;51.326;-0.068;2023-02-17T14:05:27;100424.75;;;13.03;84.22
69842;BME280;57138;51.326;-0.068;2023-02-17T14:08:13;100430.50;;;13.00;83.88
69842;BME280;57138;51.326;-0.068;2023-02-17T14:10:41;100418.47;;;12.89;84.00
69842;BME280;57138;51.326;-0.068;2023-02-17T14:13:11;100432.31;;;12.92;83.93
69842;BME280;57138;51.326;-0.068;2023-02-17T14:15:48;100437.06;;;12.90;83.95
69842;BME280;57138;51.326;-0.068;2023-02-17T14:18:23;100436.41;;;12.88;84.35
69842;BME280;57138;51.326;-0.068;2023-02-17T14:21:10;100448.19;;;12.87;84.17
69842;BME280;57138;51.326;-0.068;2023-02-17T14:23:59;100430.22;;;12.81;83.80